createdAt,value
2018-11-03T00:00:54.008Z,76.34
2018-11-03T00:03:23.069Z,75.02
2018-11-03T00:05:52.097Z,77.50
2018-11-03T00:08:22.123Z,77.27
2018-11-03T00:11:07.959Z,75.60
2018-11-03T00:13:37.022Z,75.71
2018-11-03T00:16:06.265Z,75.13
2018-11-03T00:18:36.358Z,76.49
2018-11-03T00:21:05.478Z,76.75
2018-11-03T00:23:34.514Z,75.43
2018-11-03T00:26:03.545Z,75.26
2018-11-03T00:28:32.568Z,74.80
2018-11-03T00:31:01.627Z,74.90
2018-11-03T00:33:30.687Z,75.12
2018-11-03T00:35:59.763Z,75.38
2018-11-03T00:38:28.816Z,76.06
2018-11-03T00:40:57.870Z,74.90
2018-11-03T00:43:26.915Z,74.28
2018-11-03T00:45:55.943Z,73.87
2018-11-03T00:48:24.996Z,74.79
2018-11-03T00:50:54.045Z,74.21
2018-11-03T00:53:23.087Z,75.55
2018-11-03T00:55:52.115Z,75.56
2018-11-03T00:58:21.157Z,74.07
2018-11-03T01:00:50.185Z,74.49
2018-11-03T01:03:19.231Z,74.60
2018-11-03T01:05:48.283Z,74.90
2018-11-03T01:08:17.321Z,74.77
2018-11-03T01:10:46.385Z,75.22
2018-11-03T01:13:15.459Z,73.90
2018-11-03T01:15:44.478Z,74.51
2018-11-03T01:18:13.502Z,74.50
2018-11-03T01:20:42.535Z,73.73
2018-11-03T01:23:11.573Z,74.44
2018-11-03T01:25:40.630Z,75.04
2018-11-03T01:28:09.677Z,74.33
2018-11-03T01:30:38.728Z,73.98
2018-11-03T01:33:07.785Z,74.85
2018-11-03T01:35:36.812Z,73.45
2018-11-03T01:38:05.997Z,74.06
2018-11-03T01:40:35.043Z,74.46
2018-11-03T01:43:04.083Z,74.09
2018-11-03T01:45:33.125Z,74.85
2018-11-03T01:48:02.191Z,74.86
2018-11-03T01:51:22.164Z,74.47
2018-11-03T01:53:51.180Z,75.17
2018-11-03T01:56:20.234Z,73.52
2018-11-03T01:58:49.314Z,73.79
2018-11-03T02:01:19.267Z,74.98
2018-11-03T02:03:48.330Z,75.15
2018-11-03T02:06:17.349Z,75.36
2018-11-03T02:08:46.395Z,74.72
2018-11-03T02:11:15.456Z,74.33
2018-11-03T02:13:44.507Z,74.85
2018-11-03T02:16:13.551Z,74.19
2018-11-03T02:18:42.704Z,74.01
2018-11-03T02:21:11.795Z,74.49
2018-11-03T02:23:40.814Z,74.52
2018-11-03T02:26:09.963Z,74.16
2018-11-03T02:28:39.006Z,74.22
2018-11-03T02:31:08.074Z,74.79
2018-11-03T02:33:37.123Z,73.60
2018-11-03T02:36:06.179Z,73.83
2018-11-03T02:38:35.239Z,74.72
2018-11-03T02:41:04.286Z,74.76
2018-11-03T02:43:33.347Z,74.53
2018-11-03T02:46:02.375Z,75.03
2018-11-03T02:48:31.434Z,74.75
2018-11-03T02:51:00.460Z,74.74
2018-11-03T02:53:29.522Z,74.11
2018-11-03T02:55:58.577Z,74.79
2018-11-03T02:58:27.638Z,74.88
2018-11-03T03:00:56.686Z,74.91
2018-11-03T03:03:25.757Z,74.66
2018-11-03T03:05:54.803Z,74.83
2018-11-03T03:08:23.850Z,74.11
2018-11-03T03:10:52.919Z,74.06
2018-11-03T03:13:21.957Z,73.67
2018-11-03T03:15:51.016Z,74.53
2018-11-03T03:18:20.083Z,73.08
2018-11-03T03:20:49.119Z,74.17
2018-11-03T03:23:18.183Z,73.83
2018-11-03T03:25:47.239Z,74.64
2018-11-03T03:28:16.284Z,75.14
2018-11-03T03:30:45.413Z,74.84
2018-11-03T03:33:14.719Z,74.99
2018-11-03T03:35:43.842Z,73.51
2018-11-03T03:38:12.918Z,73.92
2018-11-03T03:40:41.978Z,74.77
2018-11-03T03:43:11.039Z,75.02
2018-11-03T03:45:40.085Z,75.31
2018-11-03T03:48:09.113Z,74.57
2018-11-03T03:50:38.175Z,75.14
2018-11-03T03:53:07.402Z,74.77
2018-11-03T03:55:36.479Z,74.78
2018-11-03T03:58:05.887Z,75.33
2018-11-03T04:00:34.912Z,75.20
2018-11-03T04:03:03.959Z,75.04
2018-11-03T04:05:33.053Z,75.35
2018-11-03T04:08:02.110Z,75.07
2018-11-03T04:10:31.169Z,75.52
2018-11-03T04:13:05.684Z,74.64
2018-11-03T04:15:34.826Z,74.99
2018-11-03T04:18:03.903Z,75.18
2018-11-03T04:20:32.982Z,74.80
2018-11-03T04:23:02.051Z,75.31
2018-11-03T04:25:31.130Z,73.49
2018-11-03T04:28:00.243Z,74.47
2018-11-03T04:30:29.309Z,75.34
2018-11-03T04:32:58.401Z,75.00
2018-11-03T04:35:27.507Z,75.01
2018-11-03T04:37:56.624Z,75.10
2018-11-03T04:40:25.671Z,74.50
2018-11-03T04:42:54.729Z,75.37
2018-11-03T04:45:23.848Z,75.84
2018-11-03T04:47:52.835Z,74.91
2018-11-03T04:50:21.897Z,75.18
2018-11-03T04:52:51.033Z,73.46
2018-11-03T04:55:20.074Z,75.32
2018-11-03T04:57:49.058Z,75.68
2018-11-03T05:00:18.179Z,75.00
2018-11-03T05:02:47.299Z,75.57
2018-11-03T05:05:16.358Z,74.48
2018-11-03T05:07:45.410Z,75.45
2018-11-03T05:10:14.485Z,76.31
2018-11-03T05:12:43.472Z,74.99
2018-11-03T05:15:12.568Z,74.79
2018-11-03T05:17:41.599Z,74.87
2018-11-03T05:20:10.656Z,73.57
2018-11-03T05:22:39.774Z,76.52
2018-11-03T05:25:08.861Z,75.25
2018-11-03T05:27:37.903Z,75.31
2018-11-03T05:30:07.428Z,75.03
2018-11-03T05:32:36.747Z,75.10
2018-11-03T05:35:06.231Z,75.55
2018-11-03T05:37:35.286Z,75.30
2018-11-03T05:40:04.368Z,76.80
2018-11-03T05:42:33.407Z,77.06
2018-11-03T05:45:02.438Z,84.16
2018-11-03T05:47:31.560Z,77.88
2018-11-03T05:50:00.650Z,75.76
2018-11-03T05:52:29.666Z,76.78
2018-11-03T05:54:58.709Z,78.30
2018-11-03T05:57:27.784Z,77.08
2018-11-03T05:59:56.850Z,77.63
2018-11-03T06:02:25.873Z,79.46
2018-11-03T06:04:54.916Z,78.38
2018-11-03T06:07:24.219Z,76.77
2018-11-03T06:09:53.262Z,77.84
2018-11-03T06:12:22.287Z,77.37
2018-11-03T06:14:51.326Z,75.88
2018-11-03T06:17:20.391Z,76.22
2018-11-03T06:19:49.418Z,76.64
2018-11-03T06:22:18.552Z,75.92
2018-11-03T06:24:47.518Z,76.87
2018-11-03T06:27:17.927Z,77.70
2018-11-03T06:29:46.939Z,77.45
2018-11-03T06:32:15.990Z,80.48
2018-11-03T06:34:45.059Z,77.03
2018-11-03T06:37:14.110Z,82.61
2018-11-03T06:39:43.206Z,77.86
2018-11-03T06:42:12.260Z,79.05
2018-11-03T06:44:41.276Z,78.33
2018-11-03T06:47:10.365Z,78.97
2018-11-03T06:49:39.429Z,80.30
2018-11-03T06:52:08.500Z,79.87
2018-11-03T06:54:37.554Z,80.97
2018-11-03T06:57:06.702Z,79.52
2018-11-03T06:59:35.929Z,80.55
2018-11-03T07:02:05.134Z,80.93
2018-11-03T07:04:34.194Z,80.36
2018-11-03T07:07:03.369Z,81.44
2018-11-03T07:09:32.407Z,81.62
2018-11-03T07:12:02.520Z,80.88
2018-11-03T07:14:31.518Z,79.76
2018-11-03T07:17:00.578Z,81.62
2018-11-03T07:19:29.633Z,80.47
2018-11-03T07:21:58.750Z,79.72
2018-11-03T07:24:27.818Z,79.28
2018-11-03T07:26:56.883Z,81.09
2018-11-03T07:29:26.233Z,81.67
2018-11-03T07:31:55.995Z,80.25
2018-11-03T07:34:25.110Z,81.98
2018-11-03T07:36:54.186Z,82.91
2018-11-03T07:39:23.259Z,81.21
2018-11-03T07:41:52.347Z,80.38
2018-11-03T07:44:21.398Z,79.64
2018-11-03T07:46:50.471Z,80.63
2018-11-03T07:49:22.250Z,81.51
2018-11-03T07:51:53.793Z,81.21
2018-11-03T07:54:28.520Z,80.69
2018-11-03T07:57:01.104Z,82.80
2018-11-03T07:59:40.199Z,82.30
2018-11-03T08:02:09.439Z,82.84
2018-11-03T08:04:45.621Z,82.83
2018-11-03T08:07:19.451Z,82.57
2018-11-03T08:09:48.499Z,83.77
2018-11-03T08:12:17.555Z,86.90
2018-11-03T08:14:46.608Z,84.05
2018-11-03T08:17:17.036Z,86.77
2018-11-03T08:19:46.072Z,83.68
2018-11-03T08:22:15.693Z,83.35
2018-11-03T08:24:44.756Z,83.67
2018-11-03T08:27:13.806Z,82.68
2018-11-03T08:29:43.880Z,86.67
2018-11-03T08:32:14.334Z,85.98
2018-11-03T08:34:43.728Z,84.37
2018-11-03T08:37:12.872Z,83.22
2018-11-03T08:39:41.917Z,84.93
2018-11-03T08:42:10.972Z,87.65
2018-11-03T08:44:40.027Z,86.26
2018-11-03T08:47:09.137Z,88.46
2018-11-03T08:49:39.345Z,86.94
2018-11-03T08:52:08.436Z,86.87
2018-11-03T08:54:37.520Z,84.46
2018-11-03T08:57:06.650Z,84.89
2018-11-03T08:59:35.791Z,83.47
2018-11-03T09:02:05.326Z,86.54
2018-11-03T09:04:34.466Z,83.52
2018-11-03T09:07:03.613Z,85.00
2018-11-03T09:09:32.839Z,85.22
2018-11-03T09:12:01.928Z,84.08
2018-11-03T09:14:31.052Z,84.15
2018-11-03T09:17:04.595Z,84.70
2018-11-03T09:19:36.281Z,83.48
2018-11-03T09:22:05.425Z,83.06
2018-11-03T09:24:34.479Z,83.09
2018-11-03T09:27:03.591Z,82.24
2018-11-03T09:29:32.654Z,82.18
2018-11-03T09:32:01.835Z,82.36
2018-11-03T09:34:30.787Z,81.73
2018-11-03T09:36:59.836Z,81.75
2018-11-03T09:39:29.591Z,81.20
2018-11-03T09:41:58.866Z,80.39
2018-11-03T09:44:28.682Z,80.94
2018-11-03T09:46:57.947Z,80.98
2018-11-03T09:49:27.021Z,80.32
2018-11-03T09:51:56.055Z,79.44
2018-11-03T09:54:25.111Z,80.62
2018-11-03T09:56:54.155Z,80.60
2018-11-03T09:59:23.251Z,79.57
2018-11-03T10:01:52.299Z,79.33
2018-11-03T10:04:21.400Z,79.78
2018-11-03T10:06:50.411Z,79.35
2018-11-03T10:09:19.452Z,78.87
2018-11-03T10:11:49.652Z,77.86
2018-11-03T10:14:18.670Z,79.14
2018-11-03T10:16:47.926Z,78.86
2018-11-03T10:19:17.488Z,79.50
2018-11-03T10:21:46.566Z,78.72
2018-11-03T10:24:15.646Z,78.80
2018-11-03T10:26:44.722Z,79.25
2018-11-03T10:29:13.801Z,78.77
2018-11-03T10:31:42.902Z,78.59
2018-11-03T10:34:12.115Z,78.76
2018-11-03T10:36:41.211Z,79.66
2018-11-03T10:39:11.755Z,79.64
2018-11-03T10:41:41.717Z,78.91
2018-11-03T10:44:11.110Z,78.92
2018-11-03T10:46:40.234Z,79.48
2018-11-03T10:49:09.273Z,79.67
2018-11-03T10:51:38.317Z,78.60
2018-11-03T10:54:07.663Z,78.86
2018-11-03T10:56:36.714Z,78.97
2018-11-03T10:59:05.767Z,79.60
2018-11-03T11:01:40.025Z,79.05
2018-11-03T11:04:14.945Z,78.83
2018-11-03T11:06:49.259Z,78.42
2018-11-03T11:09:23.610Z,78.11
2018-11-03T11:11:58.857Z,78.85
2018-11-03T11:14:27.898Z,79.23
2018-11-03T11:16:57.020Z,79.12
2018-11-03T11:19:26.018Z,78.60
2018-11-03T11:21:56.535Z,78.49
2018-11-03T11:24:25.636Z,78.51
2018-11-03T11:26:54.599Z,78.32
2018-11-03T11:29:23.706Z,77.70
2018-11-03T11:31:54.683Z,78.15
2018-11-03T11:34:23.747Z,77.77
2018-11-03T11:36:53.216Z,77.49
2018-11-03T11:39:22.300Z,77.64
2018-11-03T11:41:51.351Z,76.53
2018-11-03T11:44:21.107Z,76.68
2018-11-03T11:46:50.231Z,75.98
2018-11-03T11:49:19.362Z,76.91
2018-11-03T11:54:40.837Z,74.61
2018-11-03T11:57:10.400Z,76.25
2018-11-03T11:59:39.463Z,75.31
2018-11-03T12:02:10.719Z,74.12
2018-11-03T12:04:40.444Z,75.00
2018-11-03T12:07:09.666Z,74.81
2018-11-03T12:09:39.086Z,71.61
2018-11-03T12:12:08.320Z,74.38
2018-11-03T12:14:37.455Z,72.66
2018-11-03T12:17:07.134Z,73.51
2018-11-03T12:19:36.273Z,70.06
2018-11-03T12:22:05.671Z,74.24
2018-11-03T12:24:49.968Z,73.82
2018-11-03T12:27:19.233Z,71.47
2018-11-03T12:29:49.041Z,71.46
2018-11-03T12:32:24.729Z,72.50
2018-11-03T12:34:54.314Z,69.21
2018-11-03T12:37:23.480Z,72.19
2018-11-03T12:39:52.685Z,72.20
2018-11-03T12:42:22.057Z,72.61
2018-11-03T12:44:51.144Z,69.19
2018-11-03T12:47:20.284Z,70.70
2018-11-03T12:49:49.397Z,71.87
2018-11-03T12:52:18.514Z,71.29
2018-11-03T12:54:47.917Z,71.38
2018-11-03T12:57:17.090Z,71.84
2018-11-03T12:59:46.173Z,71.47
2018-11-03T13:02:15.305Z,71.92
2018-11-03T13:04:44.444Z,70.72
2018-11-03T13:07:13.646Z,71.85
2018-11-03T13:09:42.990Z,72.00
2018-11-03T13:12:12.066Z,69.77
2018-11-03T13:14:41.483Z,70.94
2018-11-03T13:17:10.543Z,70.43
2018-11-03T13:19:39.652Z,69.01
2018-11-03T13:22:08.914Z,69.66
2018-11-03T13:24:39.012Z,70.17
2018-11-03T13:27:08.353Z,70.17
2018-11-03T13:29:37.425Z,67.95
2018-11-03T13:32:06.667Z,70.14
2018-11-03T13:34:35.715Z,67.97
2018-11-03T13:37:04.870Z,68.64
2018-11-03T13:39:34.106Z,70.58
2018-11-03T13:42:03.215Z,70.74
2018-11-03T13:44:32.270Z,69.89
2018-11-03T13:47:01.497Z,69.62
2018-11-03T13:49:30.583Z,69.03
2018-11-03T13:51:59.959Z,69.89
2018-11-03T13:54:29.029Z,68.25
2018-11-03T13:56:58.137Z,70.40
2018-11-03T13:59:27.220Z,69.60
2018-11-03T14:01:56.389Z,69.62
2018-11-03T14:04:25.580Z,66.43
2018-11-03T14:06:55.462Z,68.69
2018-11-03T14:09:24.582Z,70.65
2018-11-03T14:11:55.352Z,68.01
2018-11-03T14:14:25.147Z,69.91
2018-11-03T14:16:54.938Z,69.93
2018-11-03T14:19:24.538Z,69.78
2018-11-03T14:21:53.735Z,70.36
2018-11-03T14:24:23.167Z,69.79
2018-11-03T14:26:52.289Z,69.94
2018-11-03T14:29:21.410Z,69.95
2018-11-03T14:31:50.960Z,70.27
2018-11-03T14:34:20.155Z,70.60
2018-11-03T14:36:50.099Z,68.40
2018-11-03T14:39:19.187Z,69.09
2018-11-03T14:41:48.307Z,68.77
2018-11-03T14:44:17.483Z,66.58
2018-11-03T14:46:46.596Z,69.65
2018-11-03T14:49:15.926Z,69.51
2018-11-03T14:51:45.133Z,69.79
2018-11-03T14:54:15.261Z,69.33
2018-11-03T14:56:44.515Z,69.83
2018-11-03T14:59:13.963Z,70.16
2018-11-03T15:01:43.761Z,70.17
2018-11-03T15:04:14.011Z,69.81
2018-11-03T15:06:43.988Z,68.14
2018-11-03T15:09:18.012Z,70.27
2018-11-03T15:11:47.135Z,70.32
2018-11-03T15:14:18.872Z,70.49
2018-11-03T15:16:48.357Z,70.00
2018-11-03T15:19:20.972Z,70.36
2018-11-03T15:21:50.272Z,70.41
2018-11-03T15:24:20.298Z,69.93
2018-11-03T15:26:49.379Z,70.81
2018-11-03T15:29:18.545Z,70.25
2018-11-03T15:31:47.709Z,70.48
2018-11-03T15:34:16.940Z,70.61
2018-11-03T15:36:46.039Z,70.97
2018-11-03T15:39:15.147Z,70.63
2018-11-03T15:41:44.366Z,70.90
2018-11-03T15:44:13.519Z,70.86
2018-11-03T15:46:43.149Z,70.89
2018-11-03T15:49:12.379Z,70.88
2018-11-03T15:51:42.020Z,71.40
2018-11-03T15:54:11.822Z,71.27
2018-11-03T15:56:40.983Z,71.70
2018-11-03T15:59:10.142Z,71.42
2018-11-03T16:01:39.314Z,71.44
2018-11-03T16:04:08.482Z,71.54
2018-11-03T16:06:37.702Z,71.52
2018-11-03T16:09:09.611Z,71.66
2018-11-03T16:11:39.152Z,71.35
2018-11-03T16:14:08.801Z,71.35
2018-11-03T16:16:38.845Z,71.78
2018-11-03T16:19:08.661Z,71.33
2018-11-03T16:21:37.863Z,71.52
2018-11-03T16:24:09.754Z,71.48
2018-11-03T16:26:38.951Z,71.70
2018-11-03T16:29:08.010Z,72.00
2018-11-03T16:31:37.015Z,71.51
2018-11-03T16:34:06.160Z,71.59
2018-11-03T16:36:35.209Z,71.57
2018-11-03T16:39:05.359Z,71.95
2018-11-03T16:41:34.896Z,71.91
2018-11-03T16:44:04.779Z,72.13
2018-11-03T16:46:33.879Z,71.70
2018-11-03T16:49:02.938Z,71.85
2018-11-03T16:51:31.993Z,71.84
2018-11-03T16:54:01.047Z,71.70
2018-11-03T16:56:30.467Z,71.81
2018-11-03T16:58:59.567Z,72.13
2018-11-03T17:01:28.657Z,72.02
2018-11-03T17:03:58.404Z,72.19
2018-11-03T17:06:27.550Z,72.42
2018-11-03T17:08:56.631Z,72.22
2018-11-03T17:11:25.692Z,72.44
2018-11-03T17:13:54.752Z,72.53
2018-11-03T17:16:23.878Z,72.24
2018-11-03T17:18:53.089Z,72.31
2018-11-03T17:21:22.002Z,72.49
2018-11-03T17:23:51.068Z,72.65
2018-11-03T17:26:20.148Z,72.66
2018-11-03T17:28:49.262Z,72.50
2018-11-03T17:31:18.381Z,72.25
2018-11-03T17:33:48.397Z,73.23
2018-11-03T17:36:17.697Z,72.46
2018-11-03T17:38:46.753Z,72.23
2018-11-03T17:41:17.322Z,73.09
2018-11-03T17:43:46.896Z,72.68
2018-11-03T17:50:11.323Z,72.54
2018-11-03T18:03:13.423Z,72.85
2018-11-03T18:13:48.079Z,73.35
2018-11-03T18:16:39.702Z,73.61
2018-11-03T18:19:08.834Z,74.58
2018-11-03T18:21:48.984Z,74.20
2018-11-03T18:24:34.498Z,73.30
2018-11-03T18:27:14.411Z,73.94
2018-11-03T18:30:02.208Z,73.89
2018-11-03T18:38:58.925Z,73.50
2018-11-03T18:41:40.309Z,73.77
2018-11-03T18:44:27.027Z,74.17
2018-11-03T18:47:06.042Z,73.64
2018-11-03T18:49:38.191Z,74.04
2018-11-03T18:54:51.247Z,73.82
2018-11-03T18:57:33.993Z,73.75
2018-11-03T19:00:35.062Z,74.01
2018-11-03T19:03:16.302Z,73.94
2018-11-03T19:06:02.554Z,73.76
2018-11-03T19:11:32.207Z,73.62
2018-11-03T19:14:04.847Z,73.83
2018-11-03T19:16:59.942Z,74.24
2018-11-03T19:19:35.466Z,74.35
2018-11-03T19:22:04.646Z,73.85
2018-11-03T19:24:36.187Z,73.79
2018-11-03T19:27:08.234Z,74.05
2018-11-03T19:29:37.330Z,73.94
2018-11-03T19:32:06.973Z,73.80
2018-11-03T19:34:35.979Z,73.31
2018-11-03T19:37:05.080Z,73.18
2018-11-03T19:39:34.163Z,73.45
2018-11-03T19:42:03.266Z,74.13
2018-11-03T19:44:32.346Z,73.94
2018-11-03T19:47:01.773Z,73.07
2018-11-03T19:49:30.879Z,72.91
2018-11-03T19:51:59.943Z,73.96
2018-11-03T19:54:29.022Z,73.95
2018-11-03T19:56:58.059Z,73.23
2018-11-03T19:59:27.467Z,73.79
2018-11-03T20:01:57.361Z,74.11
2018-11-03T20:04:27.005Z,74.18
2018-11-03T20:06:56.068Z,73.54
2018-11-03T20:09:25.142Z,73.97
2018-11-03T20:11:54.231Z,74.46
2018-11-03T20:14:23.333Z,74.03
2018-11-03T20:16:54.109Z,73.99
2018-11-03T20:19:23.151Z,73.74
2018-11-03T20:21:52.265Z,74.27
2018-11-03T20:24:21.552Z,74.18
2018-11-03T20:27:00.653Z,74.16
2018-11-03T20:29:29.707Z,74.74
2018-11-03T20:31:58.950Z,74.04
2018-11-03T20:37:12.474Z,74.87
2018-11-03T20:39:41.476Z,74.60
2018-11-03T20:42:10.558Z,74.21
2018-11-03T20:44:39.615Z,74.27
2018-11-03T20:47:08.675Z,75.11
2018-11-03T20:49:38.043Z,74.62
2018-11-03T20:52:07.146Z,74.48
2018-11-03T20:54:36.179Z,74.59
2018-11-03T20:57:05.331Z,74.77
2018-11-03T20:59:34.396Z,74.71
2018-11-03T21:02:04.435Z,74.81
2018-11-03T21:04:33.456Z,74.11
2018-11-03T21:07:02.697Z,74.35
2018-11-03T21:09:31.756Z,74.40
2018-11-03T21:12:00.896Z,74.45
2018-11-03T21:14:29.961Z,75.00
2018-11-03T21:16:59.017Z,74.81
2018-11-03T21:19:29.183Z,74.89
2018-11-03T21:21:58.230Z,74.35
2018-11-03T21:24:27.278Z,74.64
2018-11-03T21:27:28.737Z,74.45
2018-11-03T21:29:57.858Z,75.33
2018-11-03T21:32:26.928Z,74.56
2018-11-03T21:34:55.992Z,75.02
2018-11-03T21:37:25.045Z,74.40
2018-11-03T21:39:54.498Z,74.94
2018-11-03T21:42:23.531Z,74.68
2018-11-03T21:44:52.556Z,74.39
2018-11-03T21:47:24.109Z,74.47
2018-11-03T21:49:53.174Z,74.46
2018-11-03T21:52:22.250Z,74.47
2018-11-03T21:54:51.314Z,74.51
2018-11-03T21:57:20.359Z,74.71
2018-11-03T21:59:49.363Z,75.27
2018-11-03T22:02:18.405Z,74.60
2018-11-03T22:04:47.474Z,74.38
2018-11-03T22:07:16.934Z,74.47
2018-11-03T22:09:46.023Z,74.28
2018-11-03T22:12:15.051Z,74.01
2018-11-03T22:14:44.063Z,74.37
2018-11-03T22:17:13.110Z,74.29
2018-11-03T22:19:42.181Z,74.36
2018-11-03T22:22:11.242Z,74.48
2018-11-03T22:24:40.287Z,75.70
2018-11-03T22:27:10.265Z,75.28
2018-11-03T22:29:39.274Z,73.92
2018-11-03T22:32:08.291Z,75.52
2018-11-03T22:34:37.369Z,76.61
2018-11-03T22:37:06.417Z,76.98
2018-11-03T22:39:35.469Z,78.37
2018-11-03T22:42:04.686Z,77.31
2018-11-03T22:44:33.802Z,75.81
2018-11-03T22:47:02.963Z,77.70
2018-11-03T22:49:32.029Z,77.37
2018-11-03T22:52:01.808Z,79.47
2018-11-03T22:54:31.399Z,78.63
2018-11-03T22:57:01.424Z,79.04
2018-11-03T22:59:30.456Z,79.77
2018-11-03T23:01:59.534Z,78.11
2018-11-03T23:04:28.567Z,78.42
2018-11-03T23:06:57.681Z,77.64
2018-11-03T23:09:26.702Z,79.54
2018-11-03T23:11:55.769Z,77.78
2018-11-03T23:14:25.441Z,77.46
2018-11-03T23:16:54.521Z,77.17
2018-11-03T23:19:23.604Z,77.25
2018-11-03T23:21:52.624Z,76.97
2018-11-03T23:24:21.665Z,76.73
2018-11-03T23:26:50.768Z,76.57
2018-11-03T23:29:19.813Z,75.99
2018-11-03T23:31:48.834Z,76.71
2018-11-03T23:34:17.931Z,76.38
2018-11-03T23:36:46.991Z,77.60
2018-11-03T23:39:16.054Z,79.84
2018-11-03T23:41:45.116Z,77.93
2018-11-03T23:44:14.790Z,77.51
2018-11-03T23:46:43.846Z,78.82
2018-11-03T23:49:13.322Z,78.02
2018-11-03T23:51:42.357Z,77.74
2018-11-03T23:54:11.479Z,78.25
2018-11-03T23:56:40.526Z,76.13
2018-11-03T23:59:09.564Z,77.50
